Time;durP1;ratioP1;P1;durP2;ratioP2;P2;SDS_P1;SDS_P2;PMS_P1;PMS_P2;Temp;Humidity;BMP_temperature;BMP_pressure;BME280_temperature;BME280_humidity;BME280_pressure;Samples;Min_cycle;Max_cycle;Signal;HPM_P1;HPM_P2
2022/02/11 00:05:29;;;;;;;;;;;;;;;;;;5075158;28;20015;-82
2022/02/11 00:07:56;;;;;;;;;;;;;;;;;;5074887;28;19921;-82
2022/02/11 00:10:21;;;;;;;;;;;;;;;;;;5075085;28;19935;-78
2022/02/11 00:12:47;;;;;;;;;;;;;;;;;;5056905;28;19920;-80
2022/02/11 00:17:56;;;;;;;;;;;;;;;;;;5075312;28;19924;-81
2022/02/11 00:20:22;;;;;;;;;;;;;;;;;;5074947;28;19921;-82
2022/02/11 00:22:48;;;;;;;;;;;;;;;;;;5074882;28;19967;-81
2022/02/11 00:25:14;;;;;;;;;;;;;;;;;;5074886;28;19921;-80
2022/02/11 00:35:41;;;;;;;;;;;;;;;;;;5074672;28;19975;-83
2022/02/11 00:38:13;;;;;;;;;;;;;;;;;;5074678;28;19917;-82
2022/02/11 00:41:20;;;;;;;;;;;;;;;;;;5074533;28;19962;-83
2022/02/11 00:46:29;;;;;;;;;;;;;;;;;;5074601;28;19928;-81
2022/02/11 01:02:42;;;;;;;;;;;;;;;;;;5094447;28;19922;-80
2022/02/11 01:05:08;;;;;;;;;;;;;;;;;;5094246;28;19923;-81
2022/02/11 01:07:33;;;;;;;;;;;;;;;;;;5094519;28;19916;-82
2022/02/11 01:09:58;;;;;;;;;;;;;;;;;;5094140;28;19962;-79
2022/02/11 01:12:25;;;;;;;;;;;;;;;;;;5094137;28;19920;-82
2022/02/11 01:14:53;;;;;;;;;;;;;;;;;;5075895;28;19920;-79
2022/02/11 01:20:03;;;;;;;;;;;;;;;;;;5094334;28;19966;-81
2022/02/11 01:23:09;;;;;;;;;;;;;;;;;;5093903;28;20257;-79
2022/02/11 01:36:24;;;;;;;;;;;;;;;;;;5093827;28;19916;-80
2022/02/11 01:44:42;;;;;;;;;;;;;;;;;;5093628;28;19923;-81
2022/02/11 02:59:04;;;;;;;;;;;;;;;;;;5097127;28;19922;-83
2022/02/11 03:01:44;;;;;;;;;;;;;;;;;;5096904;28;20334;-75
2022/02/11 03:14:42;;;;;;;;;;;;;;;;;;5096617;28;19970;-81
2022/02/11 03:31:35;;;;;;;;;;;;;;;;;;5096441;28;20295;-76
2022/02/11 04:55:22;;;;;;;;;;;;;;;;;;5037081;28;2098176;-76
2022/02/11 05:00:32;;;;;;;;;;;;;;;;;;5114211;28;20015;-81
2022/02/11 05:02:57;;;;;;;;;;;;;;;;;;5114557;28;20014;-82
2022/02/11 05:05:23;;;;;;;;;;;;;;;;;;5114202;28;20287;-89
2022/02/11 05:07:48;;;;;;;;;;;;;;;;;;5113550;28;19915;-87
2022/02/11 05:10:14;;;;;;;;;;;;;;;;;;5110393;28;19916;-84
2022/02/11 05:12:41;;;;;;;;;;;;;;;;;;5114387;28;20395;-81
2022/02/11 05:15:09;;;;;;;;;;;;;;;;;;5109048;28;19939;-80
2022/02/11 05:17:38;;;;;;;;;;;;;;;;;;5097620;28;19916;-80
2022/02/11 05:20:05;;;;;;;;;;;;;;;;;;5095172;28;19917;-80
2022/02/11 05:22:30;;;;;;;;;;;;;;;;;;5094500;28;19916;-78
2022/02/11 05:24:55;;;;;;;;;;;;;;;;;;5094574;28;19970;-80
2022/02/11 05:27:21;;;;;;;;;;;;;;;;;;5094284;28;19966;-80
2022/02/11 05:29:46;;;;;;;;;;;;;;;;;;5094191;28;19916;-80
2022/02/11 05:32:12;;;;;;;;;;;;;;;;;;5094608;28;19935;-75
2022/02/11 05:34:37;;;;;;;;;;;;;;;;;;5094521;28;19981;-80
2022/02/11 05:37:02;;;;;;;;;;;;;;;;;;5094857;28;19916;-81
2022/02/11 05:39:28;;;;;;;;;;;;;;;;;;5094628;28;20427;-81
2022/02/11 05:41:53;;;;;;;;;;;;;;;;;;5076328;28;19923;-82
2022/02/11 05:44:19;;;;;;;;;;;;;;;;;;5094534;28;19955;-81
2022/02/11 05:46:44;;;;;;;;;;;;;;;;;;5094313;28;19938;-82
2022/02/11 05:49:10;;;;;;;;;;;;;;;;;;5094457;28;20015;-82
2022/02/11 05:51:35;;;;;;;;;;;;;;;;;;5094634;28;19916;-78
2022/02/11 05:54:00;;;;;;;;;;;;;;;;;;5093961;28;19930;-81
2022/02/11 05:56:26;;;;;;;;;;;;;;;;;;5094391;28;19927;-77
2022/02/11 05:58:51;;;;;;;;;;;;;;;;;;5094200;28;20407;-79
2022/02/11 06:01:17;;;;;;;;;;;;;;;;;;5094234;28;19923;-79
2022/02/11 06:03:42;;;;;;;;;;;;;;;;;;5094153;28;20333;-79
2022/02/11 06:06:08;;;;;;;;;;;;;;;;;;5094085;28;19923;-82
2022/02/11 06:08:33;;;;;;;;;;;;;;;;;;5100145;28;19916;-80
2022/02/11 06:10:58;;;;;;;;;;;;;;;;;;5114634;28;19963;-80
2022/02/11 06:13:24;;;;;;;;;;;;;;;;;;5114347;28;19916;-79
2022/02/11 06:15:49;;;;;;;;;;;;;;;;;;5114349;28;20307;-83
2022/02/11 06:18:15;;;;;;;;;;;;;;;;;;5114387;28;19916;-80
2022/02/11 06:20:40;;;;;;;;;;;;;;;;;;5114170;28;19916;-80
2022/02/11 06:23:06;;;;;;;;;;;;;;;;;;5114256;28;19967;-81
2022/02/11 06:25:31;;;;;;;;;;;;;;;;;;5114343;28;19927;-81
2022/02/11 06:27:57;;;;;;;;;;;;;;;;;;5114294;28;19923;-79
2022/02/11 06:30:22;;;;;;;;;;;;;;;;;;5114178;28;20326;-81
2022/02/11 06:32:48;;;;;;;;;;;;;;;;;;5114060;28;19916;-82
2022/02/11 06:35:13;;;;;;;;;;;;;;;;;;5095731;28;19915;-79
2022/02/11 06:37:44;;;;;;;;;;;;;;;;;;5114190;28;19969;-78
2022/02/11 06:40:10;;;;;;;;;;;;;;;;;;5114099;28;19977;-79
2022/02/11 06:42:36;;;;;;;;;;;;;;;;;;5113945;28;19920;-82
2022/02/11 06:45:02;;;;;;;;;;;;;;;;;;5114251;28;20371;-82
2022/02/11 06:47:28;;;;;;;;;;;;;;;;;;5113800;28;20002;-82
2022/02/11 06:49:53;;;;;;;;;;;;;;;;;;5113906;28;19977;-81
2022/02/11 06:52:19;;;;;;;;;;;;;;;;;;5113918;28;19951;-81
2022/02/11 06:54:44;;;;;;;;;;;;;;;;;;5113548;28;19959;-82
2022/02/11 06:57:10;;;;;;;;;;;;;;;;;;5113685;28;19915;-80
2022/02/11 06:59:35;;;;;;;;;;;;;;;;;;5105891;28;19911;-78
2022/02/11 07:02:01;;;;;;;;;;;;;;;;;;5134394;28;20018;-78
2022/02/11 07:04:28;;;;;;;;;;;;;;;;;;5134455;28;19922;-82
2022/02/11 07:06:53;;;;;;;;;;;;;;;;;;5134290;28;19915;-84
2022/02/11 07:09:19;;;;;;;;;;;;;;;;;;5134450;28;20335;-80
2022/02/11 07:11:44;;;;;;;;;;;;;;;;;;5134570;28;19986;-80
2022/02/11 07:14:11;;;;;;;;;;;;;;;;;;5134240;28;19916;-78
2022/02/11 07:16:37;;;;;;;;;;;;;;;;;;5134129;28;19919;-78
2022/02/11 07:19:02;;;;;;;;;;;;;;;;;;5134172;28;19973;-78
2022/02/11 07:21:28;;;;;;;;;;;;;;;;;;5134658;28;20006;-80
2022/02/11 07:23:53;;;;;;;;;;;;;;;;;;5134166;28;19919;-80
2022/02/11 07:26:19;;;;;;;;;;;;;;;;;;5134173;28;19916;-81
2022/02/11 07:28:44;;;;;;;;;;;;;;;;;;5134084;28;19915;-81
2022/02/11 07:31:10;;;;;;;;;;;;;;;;;;5134577;28;19957;-80
2022/02/11 07:33:35;;;;;;;;;;;;;;;;;;5134048;28;20018;-81
2022/02/11 07:36:01;;;;;;;;;;;;;;;;;;5134618;27;19920;-81
2022/02/11 07:38:26;;;;;;;;;;;;;;;;;;5137832;27;19919;-82
2022/02/11 07:40:52;;;;;;;;;;;;;;;;;;5137776;27;20272;-81
2022/02/11 07:43:17;;;;;;;;;;;;;;;;;;5137827;27;19918;-81
2022/02/11 07:45:42;;;;;;;;;;;;;;;;;;5136122;27;19916;-81
2022/02/11 07:48:08;;;;;;;;;;;;;;;;;;5136441;27;19950;-81
2022/02/11 07:50:33;;;;;;;;;;;;;;;;;;5137440;27;19917;-82
2022/02/11 07:52:59;;;;;;;;;;;;;;;;;;5137340;27;19919;-81
2022/02/11 07:55:24;;;;;;;;;;;;;;;;;;5117699;27;19927;-79
2022/02/11 07:57:50;;;;;;;;;;;;;;;;;;5122671;28;19919;-80
2022/02/11 08:00:15;;;;;;;;;;;;;;;;;;5124781;28;19938;-81
2022/02/11 08:02:41;;;;;;;;;;;;;;;;;;5118899;28;19920;-83
2022/02/11 08:05:07;;;;;;;;;;;;;;;;;;5116337;28;19916;-84
2022/02/11 08:07:33;;;;;;;;;;;;;;;;;;5116228;28;19915;-83
2022/02/11 08:09:58;;;;;;;;;;;;;;;;;;5116185;28;19949;-84
2022/02/11 08:12:24;;;;;;;;;;;;;;;;;;5116053;28;19916;-78
2022/02/11 08:14:50;;;;;;;;;;;;;;;;;;5115907;28;20034;-82
2022/02/11 08:17:15;;;;;;;;;;;;;;;;;;5115913;28;19916;-79
2022/02/11 08:19:41;;;;;;;;;;;;;;;;;;5115876;28;19923;-81
2022/02/11 08:22:06;;;;;;;;;;;;;;;;;;5097540;28;20341;-78
2022/02/11 08:24:31;;;;;;;;;;;;;;;;;;5115770;28;19916;-82
2022/02/11 08:26:57;;;;;;;;;;;;;;;;;;5115822;28;19920;-81
2022/02/11 08:29:25;;;;;;;;;;;;;;;;;;5115798;28;19916;-79
2022/02/11 08:31:51;;;;;;;;;;;;;;;;;;5115646;28;19922;-79
2022/02/11 08:34:17;;;;;;;;;;;;;;;;;;5097311;28;20326;-82
2022/02/11 08:36:42;;;;;;;;;;;;;;;;;;5115609;28;19919;-83
2022/02/11 08:39:09;;;;;;;;;;;;;;;;;;5115526;28;19916;-82
2022/02/11 08:41:34;;;;;;;;;;;;;;;;;;5115452;28;19915;-82
2022/02/11 08:44:01;;;;;;;;;;;;;;;;;;5115443;28;20432;-80
2022/02/11 08:46:27;;;;;;;;;;;;;;;;;;5115401;28;19912;-81
2022/02/11 08:48:52;;;;;;;;;;;;;;;;;;5114125;28;20035;-84
2022/02/11 08:51:18;;;;;;;;;;;;;;;;;;5115300;28;19959;-81
2022/02/11 08:53:44;;;;;;;;;;;;;;;;;;5102234;27;19924;-81
2022/02/11 08:56:10;;;;;;;;;;;;;;;;;;5135796;27;20017;-84
2022/02/11 08:58:36;;;;;;;;;;;;;;;;;;5117066;27;19951;-83
2022/02/11 09:01:02;;;;;;;;;;;;;;;;;;5135630;27;19953;-83
2022/02/11 09:03:27;;;;;;;;;;;;;;;;;;5135571;27;19920;-82
2022/02/11 09:05:53;;;;;;;;;;;;;;;;;;5135499;27;19912;-78
2022/02/11 09:08:18;;;;;;;;;;;;;;;;;;5135550;27;19922;-82
2022/02/11 09:10:47;;;;;;;;;;;;;;;;;;5135428;27;20018;-82
2022/02/11 09:13:13;;;;;;;;;;;;;;;;;;5135377;27;19919;-83
2022/02/11 09:15:38;;;;;;;;;;;;;;;;;;5135431;27;20011;-80
2022/02/11 09:18:03;;;;;;;;;;;;;;;;;;5135591;27;19915;-84
2022/02/11 09:20:29;;;;;;;;;;;;;;;;;;5135306;27;20380;-85
2022/02/11 09:22:55;;;;;;;;;;;;;;;;;;5135055;27;19919;-84
2022/02/11 09:25:20;;;;;;;;;;;;;;;;;;5135171;27;19920;-87
2022/02/11 09:27:46;;;;;;;;;;;;;;;;;;5135292;27;20010;-78
2022/02/11 09:30:15;;;;;;;;;;;;;;;;;;5135159;27;19920;-83
2022/02/11 09:32:41;;;;;;;;;;;;;;;;;;5135005;27;19926;-85
2022/02/11 09:35:07;;;;;;;;;;;;;;;;;;5135056;27;19911;-79
2022/02/11 09:37:34;;;;;;;;;;;;;;;;;;5134970;27;19947;-82
2022/02/11 09:40:00;;;;;;;;;;;;;;;;;;5116661;27;19920;-84
2022/02/11 09:42:26;;;;;;;;;;;;;;;;;;5134829;27;20256;-83
2022/02/11 09:44:51;;;;;;;;;;;;;;;;;;5134867;27;19923;-84
2022/02/11 09:47:17;;;;;;;;;;;;;;;;;;5134768;27;19915;-83
2022/02/11 09:49:44;;;;;;;;;;;;;;;;;;5134677;27;19919;-79
2022/02/11 09:52:10;;;;;;;;;;;;;;;;;;5134774;27;20252;-84
2022/02/11 09:54:35;;;;;;;;;;;;;;;;;;5121470;27;19919;-83
2022/02/11 09:57:01;;;;;;;;;;;;;;;;;;5114026;28;20375;-81
2022/02/11 09:59:26;;;;;;;;;;;;;;;;;;5095393;28;19912;-79
2022/02/11 10:01:52;;;;;;;;;;;;;;;;;;5113954;28;20339;-79
2022/02/11 10:04:19;;;;;;;;;;;;;;;;;;5113827;28;20295;-82
2022/02/11 10:06:48;;;;;;;;;;;;;;;;;;5113798;28;19916;-83
2022/02/11 10:09:14;;;;;;;;;;;;;;;;;;5113826;28;19951;-83
2022/02/11 10:11:39;;;;;;;;;;;;;;;;;;5113850;28;19916;-82
2022/02/11 10:14:23;;;;;;;;;;;;;;;;;;5113766;28;19923;-84
2022/02/11 10:17:11;;;;;;;;;;;;;;;;;;5114000;28;20288;-82
2022/02/11 10:19:44;;;;;;;;;;;;;;;;;;5113850;28;19916;-81
2022/02/11 10:22:14;;;;;;;;;;;;;;;;;;5113952;28;19919;-82
2022/02/11 10:24:39;;;;;;;;;;;;;;;;;;5113592;28;19916;-82
2022/02/11 10:27:22;;;;;;;;;;;;;;;;;;5113725;28;19920;-82
2022/02/11 10:29:50;;;;;;;;;;;;;;;;;;5113579;28;19916;-83
2022/02/11 10:32:15;;;;;;;;;;;;;;;;;;5113692;28;20264;-81
2022/02/11 10:34:49;;;;;;;;;;;;;;;;;;5113397;28;19926;-83
2022/02/11 10:37:14;;;;;;;;;;;;;;;;;;5113550;28;19929;-83
2022/02/11 10:39:40;;;;;;;;;;;;;;;;;;5113450;28;19919;-84
2022/02/11 10:42:08;;;;;;;;;;;;;;;;;;5113421;28;19926;-84
2022/02/11 10:44:35;;;;;;;;;;;;;;;;;;5113606;28;19916;-80
2022/02/11 10:47:03;;;;;;;;;;;;;;;;;;5113469;28;19922;-82
2022/02/11 10:49:29;;;;;;;;;;;;;;;;;;5113287;28;20420;-82
2022/02/11 10:51:55;;;;;;;;;;;;;;;;;;5113220;28;19923;-84
2022/02/11 10:54:23;;;;;;;;;;;;;;;;;;5113144;28;19929;-78
2022/02/11 10:56:50;;;;;;;;;;;;;;;;;;5113220;28;19916;-81
2022/02/11 10:59:22;;;;;;;;;;;;;;;;;;5113258;28;20318;-80
2022/02/11 11:01:48;;;;;;;;;;;;;;;;;;5113364;28;19958;-78
2022/02/11 11:04:13;;;;;;;;;;;;;;;;;;5113040;28;19963;-79
2022/02/11 11:06:39;;;;;;;;;;;;;;;;;;5113180;28;19916;-82
2022/02/11 11:09:05;;;;;;;;;;;;;;;;;;5113260;28;19916;-81
2022/02/11 11:11:32;;;;;;;;;;;;;;;;;;5096235;28;20497;-81
2022/02/11 11:13:59;;;;;;;;;;;;;;;;;;5117244;28;19926;-83
2022/02/11 11:16:26;;;;;;;;;;;;;;;;;;5117119;28;19989;-80
2022/02/11 11:18:51;;;;;;;;;;;;;;;;;;5116991;28;19919;-81
2022/02/11 11:21:17;;;;;;;;;;;;;;;;;;5117017;28;19922;-80
2022/02/11 11:23:54;;;;;;;;;;;;;;;;;;5116900;28;19916;-80
2022/02/11 11:26:20;;;;;;;;;;;;;;;;;;5116873;28;19931;-84
2022/02/11 11:28:50;;;;;;;;;;;;;;;;;;5117063;28;19916;-84
2022/02/11 11:31:18;;;;;;;;;;;;;;;;;;5117107;28;20344;-80
2022/02/11 11:33:44;;;;;;;;;;;;;;;;;;5116835;28;19916;-80
2022/02/11 11:36:10;;;;;;;;;;;;;;;;;;5116781;28;19996;-80
2022/02/11 11:38:41;;;;;;;;;;;;;;;;;;5116631;28;19981;-81
2022/02/11 11:41:13;;;;;;;;;;;;;;;;;;5116737;28;19915;-80
2022/02/11 11:43:44;;;;;;;;;;;;;;;;;;5116551;28;20333;-81
2022/02/11 11:46:15;;;;;;;;;;;;;;;;;;5116589;28;19916;-81
2022/02/11 11:48:50;;;;;;;;;;;;;;;;;;5116494;28;19922;-79
2022/02/11 11:51:15;;;;;;;;;;;;;;;;;;5116889;28;19923;-78
2022/02/11 11:53:41;;;;;;;;;;;;;;;;;;5123049;27;19919;-77
2022/02/11 11:56:42;;;;;;;;;;;;;;;;;;5143461;27;19919;-75
2022/02/11 11:59:15;;;;;;;;;;;;;;;;;;5081309;28;19923;-80
2022/02/11 12:01:54;;;;;;;;;;;;;;;;;;5127379;27;19915;-80
2022/02/11 12:04:24;;;;;;;;;;;;;;;;;;5136869;27;19916;-81
2022/02/11 12:06:54;;;;;;;;;;;;;;;;;;5136661;27;19915;-81
2022/02/11 12:09:19;;;;;;;;;;;;;;;;;;5136756;27;19915;-82
2022/02/11 12:11:45;;;;;;;;;;;;;;;;;;5136778;27;19922;-81
2022/02/11 12:14:11;;;;;;;;;;;;;;;;;;5136724;27;19916;-80
2022/02/11 12:16:37;;;;;;;;;;;;;;;;;;5136416;27;20379;-82
2022/02/11 12:19:02;;;;;;;;;;;;;;;;;;5118060;27;20430;-76
2022/02/11 12:21:27;;;;;;;;;;;;;;;;;;5136475;27;19924;-82
2022/02/11 12:29:21;;;;;;;;;;;;;;;;;;5136724;27;19980;-82
2022/02/11 12:31:55;;;;;;;;;;;;;;;;;;5136444;27;20371;-83
2022/02/11 12:34:21;;;;;;;;;;;;;;;;;;5136225;27;20328;-85
2022/02/11 12:36:47;;;;;;;;;;;;;;;;;;5136264;27;19923;-85
2022/02/11 12:39:31;;;;;;;;;;;;;;;;;;5136220;27;19912;-83
2022/02/11 12:41:56;;;;;;;;;;;;;;;;;;5136178;27;19974;-83
2022/02/11 12:44:23;;;;;;;;;;;;;;;;;;5136050;27;19963;-80
2022/02/11 12:46:50;;;;;;;;;;;;;;;;;;5136077;27;19922;-83
2022/02/11 12:49:15;;;;;;;;;;;;;;;;;;5136085;27;20413;-85
2022/02/11 12:51:46;;;;;;;;;;;;;;;;;;5135954;27;19915;-79
2022/02/11 12:54:11;;;;;;;;;;;;;;;;;;5135806;27;20467;-81
2022/02/11 12:56:37;;;;;;;;;;;;;;;;;;5135824;27;20002;-83
2022/02/11 12:59:06;;;;;;;;;;;;;;;;;;5135783;27;20287;-83
2022/02/11 13:01:32;;;;;;;;;;;;;;;;;;5135938;27;20122;-81
2022/02/11 13:03:58;;;;;;;;;;;;;;;;;;5135654;27;20424;-81
2022/02/11 13:06:24;;;;;;;;;;;;;;;;;;5135601;27;19919;-82
2022/02/11 13:08:59;;;;;;;;;;;;;;;;;;5135544;27;19961;-82
2022/02/11 13:11:27;;;;;;;;;;;;;;;;;;5135739;27;20279;-82
2022/02/11 13:14:04;;;;;;;;;;;;;;;;;;5135493;27;20029;-82
2022/02/11 13:16:29;;;;;;;;;;;;;;;;;;5135341;27;19915;-83
2022/02/11 13:18:55;;;;;;;;;;;;;;;;;;5135324;27;19964;-83
2022/02/11 13:21:21;;;;;;;;;;;;;;;;;;5135378;27;19938;-78
2022/02/11 13:23:50;;;;;;;;;;;;;;;;;;5135244;27;19927;-83
2022/02/11 13:26:16;;;;;;;;;;;;;;;;;;5135334;27;19922;-76
2022/02/11 13:28:46;;;;;;;;;;;;;;;;;;5135112;27;19961;-84
2022/02/11 13:31:11;;;;;;;;;;;;;;;;;;5135128;27;19915;-83
2022/02/11 13:33:36;;;;;;;;;;;;;;;;;;5134463;27;19922;-81
2022/02/11 13:36:03;;;;;;;;;;;;;;;;;;5134894;27;19923;-82
2022/02/11 13:38:30;;;;;;;;;;;;;;;;;;5135021;27;19927;-82
2022/02/11 13:41:01;;;;;;;;;;;;;;;;;;5116515;27;19916;-84
2022/02/11 13:43:28;;;;;;;;;;;;;;;;;;5134805;27;19938;-82
2022/02/11 13:45:57;;;;;;;;;;;;;;;;;;5134850;27;19972;-82
2022/02/11 13:48:28;;;;;;;;;;;;;;;;;;5116379;27;19911;-83
2022/02/11 13:50:57;;;;;;;;;;;;;;;;;;5134698;27;20034;-79
2022/02/11 13:53:37;;;;;;;;;;;;;;;;;;5134489;27;19940;-81
2022/02/11 13:56:03;;;;;;;;;;;;;;;;;;5134703;27;19961;-80
2022/02/11 13:58:29;;;;;;;;;;;;;;;;;;5134636;27;19965;-82
2022/02/11 14:00:54;;;;;;;;;;;;;;;;;;5116058;27;19955;-81
2022/02/11 14:03:26;;;;;;;;;;;;;;;;;;5134400;27;19968;-81
2022/02/11 14:05:56;;;;;;;;;;;;;;;;;;5126626;27;20022;-77
2022/02/11 14:08:23;;;;;;;;;;;;;;;;;;5102819;28;19924;-80
2022/02/11 14:11:09;;;;;;;;;;;;;;;;;;5108683;28;19919;-77
2022/02/11 14:13:35;;;;;;;;;;;;;;;;;;5108841;28;19928;-83
2022/02/11 14:16:00;;;;;;;;;;;;;;;;;;5112174;28;19919;-81
2022/02/11 14:18:25;;;;;;;;;;;;;;;;;;5108823;28;19946;-82
2022/02/11 14:20:51;;;;;;;;;;;;;;;;;;5102993;28;19966;-76
2022/02/11 14:23:17;;;;;;;;;;;;;;;;;;5104546;28;19927;-77
2022/02/11 14:25:43;;;;;;;;;;;;;;;;;;5107145;28;19923;-83
2022/02/11 14:28:10;;;;;;;;;;;;;;;;;;5106623;28;19935;-83
2022/02/11 14:30:37;;;;;;;;;;;;;;;;;;5100430;28;19924;-79
2022/02/11 14:33:05;;;;;;;;;;;;;;;;;;5098621;28;19930;-82
2022/02/11 14:35:30;;;;;;;;;;;;;;;;;;5099400;28;19930;-80
2022/02/11 14:37:56;;;;;;;;;;;;;;;;;;5101693;28;19920;-83
2022/02/11 14:40:21;;;;;;;;;;;;;;;;;;5101070;28;19939;-79
2022/02/11 14:42:46;;;;;;;;;;;;;;;;;;5094521;28;20440;-83
2022/02/11 14:45:12;;;;;;;;;;;;;;;;;;5094427;28;19924;-77
2022/02/11 14:47:37;;;;;;;;;;;;;;;;;;5097465;28;19923;-75
2022/02/11 14:50:06;;;;;;;;;;;;;;;;;;5098122;28;20011;-81
2022/02/11 14:52:32;;;;;;;;;;;;;;;;;;5103612;27;19932;-80
2022/02/11 14:54:58;;;;;;;;;;;;;;;;;;5090412;28;19924;-82
2022/02/11 14:57:23;;;;;;;;;;;;;;;;;;5077625;28;19967;-80
2022/02/11 14:59:49;;;;;;;;;;;;;;;;;;5085147;28;19959;-80
2022/02/11 15:02:15;;;;;;;;;;;;;;;;;;5083010;28;19924;-77
2022/02/11 15:04:41;;;;;;;;;;;;;;;;;;5082874;28;19928;-82
2022/02/11 15:07:07;;;;;;;;;;;;;;;;;;5085141;28;19920;-77
2022/02/11 15:09:33;;;;;;;;;;;;;;;;;;5080968;28;19924;-75
2022/02/11 15:11:58;;;;;;;;;;;;;;;;;;5064930;28;19978;-75
2022/02/11 15:14:26;;;;;;;;;;;;;;;;;;5082456;28;20023;-81
2022/02/11 15:16:52;;;;;;;;;;;;;;;;;;5082042;28;20043;-78
2022/02/11 15:19:18;;;;;;;;;;;;;;;;;;5085001;28;20402;-80
2022/02/11 15:21:43;;;;;;;;;;;;;;;;;;5081607;28;19921;-82
2022/02/11 15:24:09;;;;;;;;;;;;;;;;;;5081180;28;20035;-79
2022/02/11 15:26:34;;;;;;;;;;;;;;;;;;5083984;28;19926;-77
2022/02/11 15:28:59;;;;;;;;;;;;;;;;;;5080492;28;19926;-78
2022/02/11 15:31:25;;;;;;;;;;;;;;;;;;5083364;28;19975;-81
2022/02/11 15:33:51;;;;;;;;;;;;;;;;;;5084397;28;19931;-81
2022/02/11 15:36:17;;;;;;;;;;;;;;;;;;5079052;28;19965;-80
2022/02/11 15:38:43;;;;;;;;;;;;;;;;;;5095085;28;19916;-82
2022/02/11 15:41:09;;;;;;;;;;;;;;;;;;5083717;28;19912;-81
2022/02/11 15:43:35;;;;;;;;;;;;;;;;;;5080294;28;19916;-81
2022/02/11 15:46:02;;;;;;;;;;;;;;;;;;5096237;28;19916;-79
2022/02/11 15:48:28;;;;;;;;;;;;;;;;;;5080644;28;20015;-82
2022/02/11 15:50:53;;;;;;;;;;;;;;;;;;5083930;28;20395;-76
2022/02/11 15:53:19;;;;;;;;;;;;;;;;;;5085599;28;19920;-80
2022/02/11 15:55:46;;;;;;;;;;;;;;;;;;5112367;28;19974;-78
2022/02/11 15:58:12;;;;;;;;;;;;;;;;;;5110485;27;19923;-80
2022/02/11 16:00:38;;;;;;;;;;;;;;;;;;5104327;28;19931;-80
2022/02/11 16:03:07;;;;;;;;;;;;;;;;;;5100434;28;20344;-81
2022/02/11 16:05:32;;;;;;;;;;;;;;;;;;5115299;28;19963;-74
2022/02/11 16:07:58;;;;;;;;;;;;;;;;;;5113430;28;19978;-80
2022/02/11 16:10:25;;;;;;;;;;;;;;;;;;5100061;28;20054;-78
2022/02/11 16:12:50;;;;;;;;;;;;;;;;;;5099298;28;19930;-81
2022/02/11 16:15:15;;;;;;;;;;;;;;;;;;5099044;28;19928;-80
2022/02/11 16:18:00;;;;;;;;;;;;;;;;;;5097524;28;19924;-81
2022/02/11 16:20:29;;;;;;;;;;;;;;;;;;5101681;28;20399;-82
2022/02/11 16:22:55;;;;;;;;;;;;;;;;;;5099410;28;20645;-82
2022/02/11 16:25:20;;;;;;;;;;;;;;;;;;5099684;28;19928;-83
2022/02/11 16:27:46;;;;;;;;;;;;;;;;;;5102279;28;20323;-84
2022/02/11 16:30:11;;;;;;;;;;;;;;;;;;5104279;28;19916;-82
2022/02/11 16:32:37;;;;;;;;;;;;;;;;;;5105595;27;19915;-84
2022/02/11 16:35:02;;;;;;;;;;;;;;;;;;5115692;28;19924;-81
2022/02/11 16:37:27;;;;;;;;;;;;;;;;;;5115697;28;19923;-80
2022/02/11 16:39:53;;;;;;;;;;;;;;;;;;5103827;28;20348;-81
2022/02/11 16:42:18;;;;;;;;;;;;;;;;;;5100662;27;19920;-76
2022/02/11 16:44:44;;;;;;;;;;;;;;;;;;5105554;28;19978;-81
2022/02/11 16:47:09;;;;;;;;;;;;;;;;;;5098061;28;20004;-82
2022/02/11 16:49:35;;;;;;;;;;;;;;;;;;5097851;28;19924;-82
2022/02/11 16:52:03;;;;;;;;;;;;;;;;;;5109466;28;20644;-81
2022/02/11 16:54:29;;;;;;;;;;;;;;;;;;5105066;28;20305;-80
2022/02/11 16:56:54;;;;;;;;;;;;;;;;;;5103897;28;19920;-75
2022/02/11 16:59:20;;;;;;;;;;;;;;;;;;5102642;28;19919;-79
2022/02/11 17:01:45;;;;;;;;;;;;;;;;;;5086202;28;19920;-80
2022/02/11 17:04:12;;;;;;;;;;;;;;;;;;5098173;28;20344;-81
2022/02/11 17:06:38;;;;;;;;;;;;;;;;;;5101927;28;19943;-83
2022/02/11 17:09:04;;;;;;;;;;;;;;;;;;5102079;28;19916;-82
2022/02/11 17:11:29;;;;;;;;;;;;;;;;;;5083981;28;19931;-78
2022/02/11 17:13:55;;;;;;;;;;;;;;;;;;5094898;28;19927;-79
2022/02/11 17:16:20;;;;;;;;;;;;;;;;;;5084086;28;20396;-75
2022/02/11 17:18:46;;;;;;;;;;;;;;;;;;5091138;28;19927;-81
2022/02/11 17:21:11;;;;;;;;;;;;;;;;;;5079592;28;20272;-76
2022/02/11 17:23:37;;;;;;;;;;;;;;;;;;5080139;28;20022;-79
2022/02/11 17:26:02;;;;;;;;;;;;;;;;;;5084689;28;19928;-83
2022/02/11 17:28:28;;;;;;;;;;;;;;;;;;5086321;28;19923;-82
2022/02/11 17:30:54;;;;;;;;;;;;;;;;;;5084169;28;19931;-79
2022/02/11 17:33:20;;;;;;;;;;;;;;;;;;5083591;28;19932;-74
2022/02/11 17:35:45;;;;;;;;;;;;;;;;;;5092714;28;20371;-76
2022/02/11 17:38:11;;;;;;;;;;;;;;;;;;5083288;28;19928;-82
2022/02/11 17:40:37;;;;;;;;;;;;;;;;;;5073498;28;19948;-81
2022/02/11 17:43:02;;;;;;;;;;;;;;;;;;5083980;28;19931;-84
2022/02/11 17:45:28;;;;;;;;;;;;;;;;;;5098101;28;20439;-82
2022/02/11 17:47:54;;;;;;;;;;;;;;;;;;5100562;28;19927;-81
2022/02/11 17:50:19;;;;;;;;;;;;;;;;;;5098986;28;19951;-80
2022/02/11 17:52:45;;;;;;;;;;;;;;;;;;5092177;28;19924;-81
2022/02/11 17:55:11;;;;;;;;;;;;;;;;;;5096941;28;19928;-79
2022/02/11 17:57:36;;;;;;;;;;;;;;;;;;5109364;28;19916;-81
2022/02/11 18:00:04;;;;;;;;;;;;;;;;;;5106294;28;19932;-79
2022/02/11 18:02:33;;;;;;;;;;;;;;;;;;5076059;28;19974;-83
2022/02/11 18:04:59;;;;;;;;;;;;;;;;;;5082993;28;19965;-83
2022/02/11 18:07:24;;;;;;;;;;;;;;;;;;5078274;28;19920;-80
2022/02/11 18:09:50;;;;;;;;;;;;;;;;;;5075783;28;19920;-80
2022/02/11 18:12:20;;;;;;;;;;;;;;;;;;5077373;28;19931;-77
2022/02/11 18:14:46;;;;;;;;;;;;;;;;;;5077200;28;19920;-82
2022/02/11 18:17:12;;;;;;;;;;;;;;;;;;5075230;28;19928;-84
2022/02/11 18:19:37;;;;;;;;;;;;;;;;;;5072850;28;19963;-82
2022/02/11 18:22:03;;;;;;;;;;;;;;;;;;5084011;28;20304;-82
2022/02/11 18:24:28;;;;;;;;;;;;;;;;;;5086302;28;20494;-78
2022/02/11 18:26:54;;;;;;;;;;;;;;;;;;5083733;28;19921;-81
2022/02/11 18:29:20;;;;;;;;;;;;;;;;;;5072141;28;20323;-82
2022/02/11 18:31:46;;;;;;;;;;;;;;;;;;5072192;28;19918;-81
2022/02/11 18:34:11;;;;;;;;;;;;;;;;;;5072388;28;19931;-81
2022/02/11 18:36:37;;;;;;;;;;;;;;;;;;5071877;28;19921;-85
2022/02/11 18:39:04;;;;;;;;;;;;;;;;;;5056671;28;19936;-87
2022/02/11 18:41:30;;;;;;;;;;;;;;;;;;5076340;28;20018;-80
2022/02/11 18:43:55;;;;;;;;;;;;;;;;;;5098758;28;20052;-86
2022/02/11 18:46:20;;;;;;;;;;;;;;;;;;5101674;28;20402;-83
2022/02/11 18:48:46;;;;;;;;;;;;;;;;;;5086086;28;19924;-81
2022/02/11 18:51:11;;;;;;;;;;;;;;;;;;5094542;28;20306;-86
2022/02/11 18:53:37;;;;;;;;;;;;;;;;;;5099340;28;19930;-82
2022/02/11 18:56:03;;;;;;;;;;;;;;;;;;5082703;28;19938;-82
2022/02/11 18:58:28;;;;;;;;;;;;;;;;;;5082417;28;20002;-82
2022/02/11 19:00:54;;;;;;;;;;;;;;;;;;5078665;28;19924;-88
2022/02/11 19:03:20;;;;;;;;;;;;;;;;;;5081092;28;19920;-86
2022/02/11 19:05:46;;;;;;;;;;;;;;;;;;5079372;28;19924;-87
2022/02/11 19:08:11;;;;;;;;;;;;;;;;;;5083483;28;19935;-88
2022/02/11 19:10:37;;;;;;;;;;;;;;;;;;5080270;28;19930;-89
2022/02/11 19:13:02;;;;;;;;;;;;;;;;;;5080052;28;19931;-81
2022/02/11 19:15:29;;;;;;;;;;;;;;;;;;5082969;28;19924;-84
2022/02/11 19:17:54;;;;;;;;;;;;;;;;;;5073249;28;19952;-84
2022/02/11 19:20:20;;;;;;;;;;;;;;;;;;5076693;28;19927;-87
2022/02/11 19:22:47;;;;;;;;;;;;;;;;;;5080030;28;19928;-84
2022/02/11 19:25:18;;;;;;;;;;;;;;;;;;5077979;28;19928;-76
2022/02/11 19:27:44;;;;;;;;;;;;;;;;;;5075763;28;19924;-85
2022/02/11 19:30:09;;;;;;;;;;;;;;;;;;5079378;28;19982;-79
2022/02/11 19:32:35;;;;;;;;;;;;;;;;;;5078542;28;20436;-79
2022/02/11 19:35:01;;;;;;;;;;;;;;;;;;5081105;28;19920;-84
2022/02/11 19:37:26;;;;;;;;;;;;;;;;;;5084016;28;20034;-84
2022/02/11 19:39:51;;;;;;;;;;;;;;;;;;5081492;28;19928;-82
2022/02/11 19:42:17;;;;;;;;;;;;;;;;;;5086603;28;19924;-84
2022/02/11 19:44:43;;;;;;;;;;;;;;;;;;5086576;28;19972;-84
2022/02/11 19:47:11;;;;;;;;;;;;;;;;;;5100878;28;19924;-83
2022/02/11 19:49:37;;;;;;;;;;;;;;;;;;5079333;28;19982;-83
2022/02/11 19:52:04;;;;;;;;;;;;;;;;;;5081879;28;20360;-84
2022/02/11 19:54:29;;;;;;;;;;;;;;;;;;5097866;28;19924;-85
2022/02/11 19:56:55;;;;;;;;;;;;;;;;;;5095571;28;20038;-84
2022/02/11 19:59:20;;;;;;;;;;;;;;;;;;5097739;28;19923;-84
2022/02/11 20:01:49;;;;;;;;;;;;;;;;;;5102593;28;20450;-83
2022/02/11 20:04:18;;;;;;;;;;;;;;;;;;5106496;28;19924;-83
2022/02/11 20:06:43;;;;;;;;;;;;;;;;;;5106326;28;19926;-82
2022/02/11 20:09:09;;;;;;;;;;;;;;;;;;5095048;28;19949;-82
2022/02/11 20:11:34;;;;;;;;;;;;;;;;;;5094900;28;20288;-83
2022/02/11 20:14:00;;;;;;;;;;;;;;;;;;5100616;27;20011;-83
2022/02/11 20:16:25;;;;;;;;;;;;;;;;;;5103441;28;19916;-83
2022/02/11 20:18:51;;;;;;;;;;;;;;;;;;5100276;28;19920;-83
2022/02/11 20:21:17;;;;;;;;;;;;;;;;;;5097928;28;20018;-83
2022/02/11 20:23:43;;;;;;;;;;;;;;;;;;5096471;28;19935;-79
2022/02/11 20:26:09;;;;;;;;;;;;;;;;;;5096460;28;19943;-81
2022/02/11 20:28:35;;;;;;;;;;;;;;;;;;5080493;28;19935;-80
2022/02/11 20:31:01;;;;;;;;;;;;;;;;;;5097258;28;19919;-83
2022/02/11 20:33:26;;;;;;;;;;;;;;;;;;5101738;27;19920;-83
2022/02/11 20:35:52;;;;;;;;;;;;;;;;;;5109141;28;19924;-83
2022/02/11 20:38:22;;;;;;;;;;;;;;;;;;5107839;28;20022;-79
2022/02/11 20:40:48;;;;;;;;;;;;;;;;;;5114607;28;19916;-82